Time;durP1;ratioP1;P1;durP2;ratioP2;P2;SDS_P1;SDS_P2;PMS_P1;PMS_P2;Temp;Humidity;BMP_temperature;BMP_pressure;BME280_temperature;BME280_humidity;BME280_pressure;Samples;Min_cycle;Max_cycle;Signal;HPM_P1;HPM_P2
2022/12/19 00:02:12;;;;;;;60.90;36.30;;;;;;;;;;4963015;28;20197;-80
2022/12/19 00:04:38;;;;;;;59.70;36.10;;;;;;;;;;4963230;28;20186;-80
2022/12/19 00:07:04;;;;;;;57.43;33.93;;;;;;;;;;4962631;28;20253;-79
2022/12/19 00:09:30;;;;;;;57.77;34.77;;;;;;;;;;4980742;28;20190;-79
2022/12/19 00:11:56;;;;;;;57.17;34.10;;;;;;;;;;4995430;28;20197;-81
2022/12/19 00:14:22;;;;;;;59.47;33.83;;;;;;;;;;4995171;28;20193;-81
2022/12/19 00:16:49;;;;;;;60.37;35.70;;;;;;;;;;4978719;28;20205;-81
2022/12/19 00:19:15;;;;;;;62.53;33.77;;;;;;;;;;4978893;28;20206;-82
2022/12/19 00:21:41;;;;;;;58.00;34.73;;;;;;;;;;4963170;28;20249;-82
2022/12/19 00:24:07;;;;;;;62.97;36.77;;;;;;;;;;4963259;28;20276;-82
2022/12/19 00:26:35;;;;;;;61.67;36.10;;;;;;;;;;4963124;28;20210;-82
2022/12/19 00:29:03;;;;;;;58.17;35.13;;;;;;;;;;4995205;28;20210;-85
2022/12/19 00:31:30;;;;;;;57.50;34.97;;;;;;;;;;4995018;28;20188;-85
2022/12/19 00:33:57;;;;;;;62.00;36.50;;;;;;;;;;4994981;28;20182;-85
2022/12/19 00:36:27;;;;;;;63.27;34.93;;;;;;;;;;4994724;28;20301;-85
2022/12/19 00:38:54;;;;;;;66.77;36.50;;;;;;;;;;4978606;28;20218;-85
2022/12/19 00:41:25;;;;;;;65.50;36.60;;;;;;;;;;4978725;28;20178;-85
2022/12/19 00:43:54;;;;;;;63.80;37.07;;;;;;;;;;4978850;28;20224;-85
2022/12/19 00:46:21;;;;;;;61.23;36.30;;;;;;;;;;4978359;28;20260;-85
2022/12/19 00:48:47;;;;;;;63.03;35.57;;;;;;;;;;4978581;28;20277;-84
2022/12/19 00:51:14;;;;;;;64.60;34.90;;;;;;;;;;4962173;28;20289;-85
2022/12/19 00:53:40;;;;;;;64.77;36.43;;;;;;;;;;4978785;28;20186;-85
2022/12/19 00:56:26;;;;;;;71.93;37.53;;;;;;;;;;4962268;28;20234;-84
2022/12/19 00:58:53;;;;;;;67.10;37.47;;;;;;;;;;4978373;28;20178;-85
2022/12/19 01:01:21;;;;;;;69.27;38.13;;;;;;;;;;4962370;28;20233;-85
2022/12/19 01:03:47;;;;;;;72.27;38.53;;;;;;;;;;4978355;28;20181;-80
2022/12/19 01:06:13;;;;;;;69.67;37.83;;;;;;;;;;4978170;28;20181;-80
2022/12/19 01:08:39;;;;;;;69.67;38.13;;;;;;;;;;4962274;28;20190;-80
2022/12/19 01:11:05;;;;;;;72.53;38.83;;;;;;;;;;4978274;28;20213;-80
2022/12/19 01:13:32;;;;;;;77.27;39.27;;;;;;;;;;4978075;28;20182;-80
2022/12/19 01:16:02;;;;;;;80.33;41.73;;;;;;;;;;4996302;28;20210;-80
2022/12/19 01:18:28;;;;;;;77.37;40.40;;;;;;;;;;4969891;28;20182;-80
2022/12/19 01:20:54;;;;;;;79.43;42.03;;;;;;;;;;4969211;28;20182;-80
2022/12/19 01:23:20;;;;;;;83.27;40.77;;;;;;;;;;4969475;28;20188;-80
2022/12/19 01:25:51;;;;;;;74.03;38.93;;;;;;;;;;4983092;28;20177;-79
2022/12/19 01:28:17;;;;;;;80.07;40.17;;;;;;;;;;4984566;28;20254;-81
2022/12/19 01:30:43;;;;;;;82.10;40.47;;;;;;;;;;4981036;28;20264;-82
2022/12/19 01:33:11;;;;;;;77.37;38.50;;;;;;;;;;5008859;28;20203;-82
2022/12/19 01:35:37;;;;;;;79.80;38.87;;;;;;;;;;4968930;28;20210;-80
2022/12/19 01:38:09;;;;;;;82.60;40.53;;;;;;;;;;4969390;28;20182;-80
2022/12/19 01:40:35;;;;;;;80.87;39.77;;;;;;;;;;4993302;28;20186;-80
2022/12/19 01:43:01;;;;;;;79.60;40.47;;;;;;;;;;4969250;28;20201;-80
2022/12/19 01:45:36;;;;;;;83.13;40.83;;;;;;;;;;4967564;28;20265;-80
2022/12/19 01:48:14;;;;;;;82.10;40.83;;;;;;;;;;4977877;28;20197;-80
2022/12/19 01:50:46;;;;;;;85.47;40.83;;;;;;;;;;4992321;28;20177;-80
2022/12/19 01:53:13;;;;;;;82.17;41.80;;;;;;;;;;4992684;28;20186;-82
2022/12/19 01:55:40;;;;;;;87.77;41.20;;;;;;;;;;4968991;28;20225;-86
2022/12/19 01:58:07;;;;;;;82.70;42.37;;;;;;;;;;4993494;28;20197;-85
2022/12/19 02:00:33;;;;;;;80.00;41.03;;;;;;;;;;4983583;28;20190;-85
2022/12/19 02:03:05;;;;;;;84.80;40.83;;;;;;;;;;4984647;28;20188;-86
2022/12/19 02:05:34;;;;;;;86.33;42.47;;;;;;;;;;4994232;28;20174;-86
2022/12/19 02:08:01;;;;;;;94.23;43.93;;;;;;;;;;4971138;28;20193;-85
2022/12/19 02:10:29;;;;;;;102.77;44.33;;;;;;;;;;4982349;28;20189;-80
2022/12/19 02:12:55;;;;;;;89.23;43.97;;;;;;;;;;4983879;28;20182;-80
2022/12/19 02:15:22;;;;;;;90.93;45.23;;;;;;;;;;4993428;28;20261;-80
2022/12/19 02:17:51;;;;;;;89.43;42.87;;;;;;;;;;4964425;28;20213;-80
2022/12/19 02:20:35;;;;;;;95.10;45.50;;;;;;;;;;4994174;28;20214;-80
2022/12/19 02:23:20;;;;;;;100.43;44.40;;;;;;;;;;4983090;28;20180;-80
2022/12/19 02:26:00;;;;;;;94.20;43.97;;;;;;;;;;4982215;28;20236;-83
2022/12/19 02:28:45;;;;;;;89.83;44.00;;;;;;;;;;4983454;28;20185;-82
2022/12/19 02:31:14;;;;;;;86.67;42.23;;;;;;;;;;4984313;28;20213;-83
2022/12/19 02:33:45;;;;;;;95.43;43.63;;;;;;;;;;4985086;28;20182;-83
2022/12/19 02:36:32;;;;;;;87.37;42.93;;;;;;;;;;4992080;28;20260;-83
2022/12/19 02:39:00;;;;;;;87.90;42.17;;;;;;;;;;4980373;28;20178;-83
2022/12/19 02:41:29;;;;;;;85.23;40.43;;;;;;;;;;4984584;28;20170;-83
2022/12/19 02:43:55;;;;;;;83.03;40.27;;;;;;;;;;4984666;28;20174;-81
2022/12/19 02:46:22;;;;;;;83.50;40.87;;;;;;;;;;4968512;28;20260;-80
2022/12/19 02:48:48;;;;;;;82.87;40.83;;;;;;;;;;4984922;28;20174;-80
2022/12/19 02:51:14;;;;;;;83.53;40.63;;;;;;;;;;4969010;28;20186;-80
2022/12/19 02:53:41;;;;;;;87.27;41.87;;;;;;;;;;4985526;28;20186;-78
2022/12/19 02:56:26;;;;;;;86.27;40.73;;;;;;;;;;4992663;28;20268;-79
2022/12/19 02:58:52;;;;;;;91.23;39.73;;;;;;;;;;4993159;28;20221;-79
2022/12/19 03:01:21;;;;;;;82.57;41.03;;;;;;;;;;4982096;28;20265;-79
2022/12/19 03:03:55;;;;;;;82.30;41.37;;;;;;;;;;4979585;28;20170;-79
2022/12/19 03:06:29;;;;;;;84.27;41.03;;;;;;;;;;4982625;28;20181;-79
2022/12/19 03:09:01;;;;;;;89.50;41.50;;;;;;;;;;4992698;28;20184;-79
2022/12/19 03:11:31;;;;;;;90.27;41.23;;;;;;;;;;4992543;28;20178;-79
2022/12/19 03:13:59;;;;;;;82.03;41.17;;;;;;;;;;4994700;28;20174;-82
2022/12/19 03:16:25;;;;;;;90.67;41.00;;;;;;;;;;4980601;28;20210;-82
2022/12/19 03:18:51;;;;;;;90.33;41.27;;;;;;;;;;4980664;28;20177;-82
2022/12/19 03:21:22;;;;;;;85.57;41.70;;;;;;;;;;4964551;28;20181;-82
2022/12/19 03:23:50;;;;;;;79.80;40.00;;;;;;;;;;4997986;28;20193;-82
2022/12/19 03:26:18;;;;;;;85.90;40.73;;;;;;;;;;4980453;28;20178;-82
2022/12/19 03:28:44;;;;;;;91.63;40.67;;;;;;;;;;4980953;28;20193;-82
2022/12/19 03:31:11;;;;;;;87.10;42.07;;;;;;;;;;4980404;28;20188;-85
2022/12/19 03:33:38;;;;;;;92.73;41.07;;;;;;;;;;4981054;28;20178;-79
2022/12/19 03:36:07;;;;;;;89.60;40.60;;;;;;;;;;4980629;28;20237;-79
2022/12/19 03:38:34;;;;;;;88.43;41.27;;;;;;;;;;4980231;28;20249;-79
2022/12/19 03:41:01;;;;;;;91.77;41.03;;;;;;;;;;4997452;28;20194;-79
2022/12/19 03:43:28;;;;;;;94.60;41.10;;;;;;;;;;4964085;28;20184;-79
2022/12/19 03:45:56;;;;;;;85.80;41.17;;;;;;;;;;4976631;28;20237;-79
2022/12/19 03:48:42;;;;;;;90.67;40.07;;;;;;;;;;4977383;28;20249;-79
2022/12/19 03:51:28;;;;;;;93.93;41.13;;;;;;;;;;4976640;28;20213;-79
2022/12/19 03:53:54;;;;;;;87.00;40.73;;;;;;;;;;4976589;28;20193;-79
2022/12/19 03:56:25;;;;;;;101.90;42.83;;;;;;;;;;4977639;28;20293;-79
2022/12/19 03:58:56;;;;;;;93.63;40.90;;;;;;;;;;4976573;28;20202;-79
2022/12/19 04:01:22;;;;;;;88.63;41.73;;;;;;;;;;4977120;28;20230;-79
2022/12/19 04:03:49;;;;;;;95.53;42.00;;;;;;;;;;4960498;28;20191;-79
2022/12/19 04:06:15;;;;;;;91.30;41.43;;;;;;;;;;4960888;28;20187;-82
2022/12/19 04:08:42;;;;;;;95.17;41.53;;;;;;;;;;4942800;29;20187;-82
2022/12/19 04:11:11;;;;;;;100.37;43.10;;;;;;;;;;4941316;29;20191;-82
2022/12/19 04:13:40;;;;;;;93.43;41.47;;;;;;;;;;4958195;29;20250;-79
2022/12/19 04:16:11;;;;;;;94.57;41.57;;;;;;;;;;4960138;28;20207;-80
2022/12/19 04:18:38;;;;;;;95.47;42.27;;;;;;;;;;4957001;29;20242;-79
2022/12/19 04:21:17;;;;;;;102.37;42.67;;;;;;;;;;4956807;29;20191;-79
2022/12/19 04:23:47;;;;;;;98.83;42.83;;;;;;;;;;4957222;29;20270;-85
2022/12/19 04:26:14;;;;;;;90.30;41.63;;;;;;;;;;4956612;28;20224;-85
2022/12/19 04:28:43;;;;;;;99.13;42.57;;;;;;;;;;4956721;29;20187;-85
2022/12/19 04:31:11;;;;;;;101.37;42.63;;;;;;;;;;4956659;29;20278;-84
2022/12/19 04:33:37;;;;;;;104.23;43.80;;;;;;;;;;4957079;29;20183;-85
2022/12/19 04:36:03;;;;;;;96.60;41.57;;;;;;;;;;4956499;29;20225;-85
2022/12/19 04:38:29;;;;;;;103.53;42.93;;;;;;;;;;4956684;28;20183;-86
2022/12/19 04:40:55;;;;;;;95.03;42.50;;;;;;;;;;4956934;28;20180;-86
2022/12/19 04:43:21;;;;;;;104.80;43.73;;;;;;;;;;4940745;29;20194;-86
2022/12/19 04:45:47;;;;;;;104.83;43.23;;;;;;;;;;4946400;28;20264;-86
2022/12/19 04:48:13;;;;;;;100.03;43.57;;;;;;;;;;4995385;28;20264;-86
2022/12/19 04:50:40;;;;;;;98.43;43.40;;;;;;;;;;4978884;28;20185;-84
2022/12/19 04:53:06;;;;;;;84.17;38.80;;;;;;;;;;4995839;28;20231;-86
2022/12/19 04:55:32;;;;;;;103.17;43.30;;;;;;;;;;4995159;28;20229;-83
2022/12/19 04:57:58;;;;;;;94.60;41.70;;;;;;;;;;4995067;28;20194;-82
2022/12/19 05:00:24;;;;;;;96.10;42.07;;;;;;;;;;5008353;22;20160;-80
2022/12/19 05:02:50;;;;;;;103.73;42.27;;;;;;;;;;5000926;28;20184;-79
2022/12/19 05:05:17;;;;;;;97.17;42.10;;;;;;;;;;5013885;28;20185;-79
2022/12/19 05:07:43;;;;;;;94.90;41.70;;;;;;;;;;5014326;28;20185;-79
2022/12/19 05:10:09;;;;;;;103.80;43.33;;;;;;;;;;5007991;28;20256;-80
2022/12/19 05:12:36;;;;;;;98.27;41.10;;;;;;;;;;5001180;28;20188;-86
2022/12/19 05:15:02;;;;;;;98.00;41.73;;;;;;;;;;5000990;28;20184;-86
2022/12/19 05:17:28;;;;;;;86.37;40.30;;;;;;;;;;5001064;28;20192;-86
2022/12/19 05:19:54;;;;;;;96.83;42.03;;;;;;;;;;5001170;28;20177;-85
2022/12/19 05:22:20;;;;;;;85.40;38.97;;;;;;;;;;5000882;28;20176;-85
2022/12/19 05:24:46;;;;;;;86.80;40.50;;;;;;;;;;4995245;28;20189;-86
2022/12/19 05:27:12;;;;;;;87.60;40.10;;;;;;;;;;4997361;28;20182;-86
2022/12/19 05:29:38;;;;;;;83.43;41.33;;;;;;;;;;5010079;28;20192;-79
2022/12/19 05:32:04;;;;;;;93.53;41.87;;;;;;;;;;5016859;28;20189;-80
2022/12/19 05:34:30;;;;;;;90.33;41.23;;;;;;;;;;5016742;28;20271;-80
2022/12/19 05:36:56;;;;;;;88.93;40.97;;;;;;;;;;5016553;28;20299;-79
2022/12/19 05:39:22;;;;;;;87.87;42.30;;;;;;;;;;5016496;28;20208;-79
2022/12/19 05:41:48;;;;;;;100.63;42.17;;;;;;;;;;5000582;28;20180;-80
2022/12/19 05:44:14;;;;;;;91.90;43.07;;;;;;;;;;5000093;28;20179;-79
2022/12/19 05:46:40;;;;;;;93.23;41.67;;;;;;;;;;5016464;28;20193;-82
2022/12/19 05:49:06;;;;;;;92.10;42.13;;;;;;;;;;5000273;28;20184;-82
2022/12/19 05:51:32;;;;;;;89.90;41.60;;;;;;;;;;5000487;28;20189;-82
2022/12/19 05:53:59;;;;;;;84.90;41.23;;;;;;;;;;5016396;28;20287;-83
2022/12/19 05:56:25;;;;;;;74.83;37.93;;;;;;;;;;5032140;28;20279;-82
2022/12/19 05:58:53;;;;;;;82.57;40.13;;;;;;;;;;4989269;28;20172;-82
2022/12/19 06:01:23;;;;;;;85.03;38.50;;;;;;;;;;5033895;28;20224;-82
2022/12/19 06:03:49;;;;;;;77.03;37.60;;;;;;;;;;5016062;28;20177;-82
2022/12/19 06:06:17;;;;;;;76.17;37.17;;;;;;;;;;5033078;28;20195;-82
2022/12/19 06:08:43;;;;;;;76.27;36.97;;;;;;;;;;5033709;28;20180;-82
2022/12/19 06:11:10;;;;;;;76.27;36.77;;;;;;;;;;4999673;28;20189;-82
2022/12/19 06:13:36;;;;;;;76.80;36.23;;;;;;;;;;4996626;28;20213;-82
2022/12/19 06:16:04;;;;;;;78.23;36.87;;;;;;;;;;4997760;28;20221;-82
2022/12/19 06:18:30;;;;;;;67.77;36.13;;;;;;;;;;5013929;28;20188;-86
2022/12/19 06:21:00;;;;;;;75.03;36.43;;;;;;;;;;5000357;28;20184;-85
2022/12/19 06:23:27;;;;;;;78.37;35.87;;;;;;;;;;5000538;28;20188;-86
2022/12/19 06:25:55;;;;;;;75.53;36.43;;;;;;;;;;5016503;28;20311;-86
2022/12/19 06:28:21;;;;;;;78.93;36.03;;;;;;;;;;5032899;28;20180;-85
2022/12/19 06:30:47;;;;;;;77.90;36.57;;;;;;;;;;5000102;28;20180;-86
2022/12/19 06:33:13;;;;;;;70.90;34.47;;;;;;;;;;5031838;28;20191;-87
2022/12/19 06:35:39;;;;;;;77.43;34.57;;;;;;;;;;5015792;28;20205;-81
2022/12/19 06:38:05;;;;;;;70.73;35.80;;;;;;;;;;5016311;28;20185;-80
2022/12/19 06:43:15;;;;;;;93.10;52.92;;;;;;;;;;5030218;28;20440;-80
2022/12/19 06:45:41;;;;;;;71.63;38.23;;;;;;;;;;4999902;28;20177;-80
2022/12/19 06:48:07;;;;;;;79.87;36.60;;;;;;;;;;5000088;28;20196;-80
2022/12/19 06:50:34;;;;;;;74.37;36.10;;;;;;;;;;5037068;28;20173;-80
2022/12/19 06:53:00;;;;;;;74.47;36.00;;;;;;;;;;5020319;28;20208;-82
2022/12/19 06:55:27;;;;;;;70.53;35.77;;;;;;;;;;5020383;28;20196;-82
2022/12/19 06:57:53;;;;;;;74.13;35.93;;;;;;;;;;5020371;28;20189;-82
2022/12/19 07:00:20;;;;;;;69.07;34.73;;;;;;;;;;5003642;28;20211;-82
2022/12/19 07:02:48;;;;;;;75.27;36.23;;;;;;;;;;5020414;28;20177;-82
2022/12/19 07:05:14;;;;;;;70.67;35.40;;;;;;;;;;5037301;28;20169;-82
2022/12/19 07:07:40;;;;;;;74.43;36.57;;;;;;;;;;5003480;28;20188;-82
2022/12/19 07:10:07;;;;;;;75.03;35.93;;;;;;;;;;5037121;28;20173;-80
2022/12/19 07:12:34;;;;;;;78.80;36.43;;;;;;;;;;5029121;28;20226;-80
2022/12/19 07:15:00;;;;;;;74.87;36.30;;;;;;;;;;5019953;28;20230;-81
2022/12/19 07:17:28;;;;;;;68.67;34.63;;;;;;;;;;5020055;28;20183;-80
2022/12/19 07:19:55;;;;;;;68.13;34.90;;;;;;;;;;5037587;28;20173;-80
2022/12/19 07:22:22;;;;;;;76.73;35.40;;;;;;;;;;5027630;28;20264;-80
2022/12/19 07:24:48;;;;;;;71.30;34.93;;;;;;;;;;4999819;28;20205;-80
2022/12/19 07:27:14;;;;;;;71.07;35.53;;;;;;;;;;4984089;28;20224;-86
2022/12/19 07:29:40;;;;;;;77.97;36.17;;;;;;;;;;4999797;28;20190;-87
2022/12/19 07:32:06;;;;;;;68.07;34.57;;;;;;;;;;4985721;28;20192;-87
2022/12/19 07:34:32;;;;;;;71.07;34.83;;;;;;;;;;5035598;28;20185;-86
2022/12/19 07:36:58;;;;;;;67.37;35.20;;;;;;;;;;5036939;28;20208;-86
2022/12/19 07:39:24;;;;;;;76.27;36.57;;;;;;;;;;4998265;28;20273;-86
2022/12/19 07:41:50;;;;;;;72.13;38.00;;;;;;;;;;5018519;28;20188;-82
2022/12/19 07:44:16;;;;;;;67.50;35.57;;;;;;;;;;5018576;28;20188;-81
2022/12/19 07:46:43;;;;;;;75.73;37.10;;;;;;;;;;4999324;28;20242;-81
2022/12/19 07:49:10;;;;;;;68.77;34.70;;;;;;;;;;4990104;28;20185;-81
2022/12/19 07:51:36;;;;;;;65.63;35.30;;;;;;;;;;5006224;28;20185;-81
2022/12/19 07:54:02;;;;;;;74.13;36.50;;;;;;;;;;5018253;28;20181;-81
2022/12/19 07:56:28;;;;;;;70.83;35.13;;;;;;;;;;5026593;28;20209;-81
2022/12/19 07:58:54;;;;;;;69.97;33.93;;;;;;;;;;5011160;28;20177;-81
2022/12/19 08:01:20;;;;;;;71.07;36.13;;;;;;;;;;5012551;28;20301;-81
2022/12/19 08:03:46;;;;;;;68.17;34.67;;;;;;;;;;4990865;28;20220;-81
2022/12/19 08:06:12;;;;;;;71.13;34.63;;;;;;;;;;5028494;28;20189;-81
2022/12/19 08:08:38;;;;;;;66.00;33.63;;;;;;;;;;5033685;28;20203;-81
2022/12/19 08:11:08;;;;;;;75.23;34.97;;;;;;;;;;5001311;28;20249;-81
2022/12/19 08:13:35;;;;;;;71.10;34.33;;;;;;;;;;4998695;28;20196;-81
2022/12/19 08:16:01;;;;;;;72.97;33.97;;;;;;;;;;5024179;28;20213;-79
2022/12/19 08:18:27;;;;;;;71.40;34.13;;;;;;;;;;5001929;28;20188;-79
2022/12/19 08:20:53;;;;;;;81.77;34.50;;;;;;;;;;5017567;28;20189;-79
2022/12/19 08:23:18;;;;;;;76.30;33.87;;;;;;;;;;4990239;28;20228;-79
2022/12/19 08:25:44;;;;;;;59.60;29.60;;;;;;;;;;5034598;28;20185;-79
2022/12/19 08:28:10;;;;;;;49.43;27.27;;;;;;;;;;5004285;28;20188;-79
2022/12/19 08:30:40;;;;;;;48.23;26.60;;;;;;;;;;5028308;28;20186;-78
2022/12/19 08:33:09;;;;;;;43.77;25.30;;;;;;;;;;5014460;28;20195;-81
2022/12/19 08:35:36;;;;;;;37.73;22.67;;;;;;;;;;5016080;28;20204;-81
2022/12/19 08:38:02;;;;;;;33.83;21.30;;;;;;;;;;5013337;28;20204;-81
2022/12/19 08:40:28;;;;;;;34.10;21.60;;;;;;;;;;5013339;28;20203;-80
2022/12/19 08:42:54;;;;;;;41.83;23.70;;;;;;;;;;5001009;28;20184;-80
2022/12/19 08:45:20;;;;;;;33.83;22.53;;;;;;;;;;4999747;28;20174;-81
2022/12/19 08:47:46;;;;;;;31.67;21.00;;;;;;;;;;5001366;28;20283;-80
2022/12/19 08:50:13;;;;;;;31.53;18.73;;;;;;;;;;4998044;28;20185;-80
2022/12/19 08:52:39;;;;;;;29.43;19.20;;;;;;;;;;5014711;28;20180;-79
2022/12/19 08:55:06;;;;;;;33.33;19.97;;;;;;;;;;5000189;28;20197;-79
2022/12/19 08:57:32;;;;;;;28.87;19.70;;;;;;;;;;5013620;28;20227;-79
2022/12/19 08:59:58;;;;;;;28.10;18.40;;;;;;;;;;5000919;28;20180;-79
2022/12/19 09:02:24;;;;;;;26.73;18.40;;;;;;;;;;4996227;28;20221;-79
2022/12/19 09:04:50;;;;;;;25.20;17.40;;;;;;;;;;5029316;28;20174;-79
2022/12/19 09:07:16;;;;;;;29.00;17.77;;;;;;;;;;5016996;28;20195;-79
2022/12/19 09:09:42;;;;;;;26.10;17.97;;;;;;;;;;5000451;28;20227;-79
2022/12/19 09:12:08;;;;;;;30.37;17.90;;;;;;;;;;5016093;28;20219;-78
2022/12/19 09:14:35;;;;;;;30.07;18.23;;;;;;;;;;5004614;28;20216;-79
2022/12/19 09:17:01;;;;;;;28.17;18.70;;;;;;;;;;5008800;28;20262;-79
2022/12/19 09:19:27;;;;;;;33.87;19.83;;;;;;;;;;5000457;28;20188;-79
2022/12/19 09:21:53;;;;;;;31.03;19.33;;;;;;;;;;5016271;28;20208;-79
2022/12/19 09:24:19;;;;;;;28.57;19.57;;;;;;;;;;5009358;28;20189;-80
2022/12/19 09:26:45;;;;;;;30.93;20.10;;;;;;;;;;5015338;28;20184;-79
2022/12/19 09:29:11;;;;;;;37.27;19.43;;;;;;;;;;5015871;28;20191;-79
2022/12/19 09:31:37;;;;;;;29.40;19.33;;;;;;;;;;4999680;28;20216;-79
2022/12/19 09:34:03;;;;;;;32.27;19.27;;;;;;;;;;5000631;28;20196;-79
2022/12/19 09:36:29;;;;;;;26.93;18.27;;;;;;;;;;4997706;28;20221;-79
2022/12/19 09:38:56;;;;;;;28.07;17.10;;;;;;;;;;5000332;28;20177;-83
2022/12/19 09:41:37;;;;;;;28.00;18.80;;;;;;;;;;5017072;28;20267;-83
2022/12/19 09:44:03;;;;;;;28.80;17.80;;;;;;;;;;5017159;28;20180;-82
2022/12/19 09:46:38;;;;;;;29.57;18.43;;;;;;;;;;5017218;28;20230;-83
2022/12/19 09:49:09;;;;;;;26.00;18.20;;;;;;;;;;5016888;28;20235;-83
2022/12/19 09:51:40;;;;;;;29.47;18.87;;;;;;;;;;5001458;28;20268;-83
2022/12/19 09:54:24;;;;;;;29.40;18.20;;;;;;;;;;5002063;28;20185;-83
2022/12/19 09:56:52;;;;;;;29.10;17.77;;;;;;;;;;5034346;28;20219;-83
2022/12/19 09:59:31;;;;;;;33.90;17.93;;;;;;;;;;5017073;28;20177;-83
2022/12/19 10:02:01;;;;;;;28.03;17.97;;;;;;;;;;5016482;28;20239;-83
2022/12/19 10:04:29;;;;;;;25.90;16.63;;;;;;;;;;5017083;28;20179;-83
2022/12/19 10:06:55;;;;;;;28.17;17.00;;;;;;;;;;5016639;28;20187;-83
2022/12/19 10:09:23;;;;;;;32.53;18.30;;;;;;;;;;5034325;28;20200;-83
2022/12/19 10:11:52;;;;;;;29.67;17.43;;;;;;;;;;5044719;28;20185;-83
2022/12/19 10:14:18;;;;;;;24.80;16.67;;;;;;;;;;5011543;28;20188;-83
2022/12/19 10:16:47;;;;;;;27.53;16.53;;;;;;;;;;5015906;28;20208;-83
2022/12/19 10:19:33;;;;;;;31.23;16.93;;;;;;;;;;5034148;28;20184;-83
2022/12/19 10:22:18;;;;;;;24.73;16.70;;;;;;;;;;5000114;28;20188;-83
2022/12/19 10:25:03;;;;;;;23.37;16.77;;;;;;;;;;5020270;28;20207;-83
2022/12/19 10:27:52;;;;;;;24.47;16.10;;;;;;;;;;5023718;28;20268;-83
2022/12/19 10:30:22;;;;;;;29.40;16.80;;;;;;;;;;5006123;28;20210;-81
2022/12/19 10:33:00;;;;;;;26.67;16.30;;;;;;;;;;5010310;28;20181;-81
2022/12/19 10:35:32;;;;;;;24.50;16.37;;;;;;;;;;5020716;28;20263;-80
2022/12/19 10:38:10;;;;;;;26.13;16.57;;;;;;;;;;5003261;28;20177;-81
2022/12/19 10:40:39;;;;;;;23.80;17.20;;;;;;;;;;5003326;28;20239;-81
2022/12/19 10:43:11;;;;;;;31.20;17.07;;;;;;;;;;5011023;28;20177;-81
2022/12/19 10:45:39;;;;;;;28.07;18.40;;;;;;;;;;5016099;28;20192;-87
2022/12/19 10:48:06;;;;;;;25.27;17.73;;;;;;;;;;5023186;28;20191;-87
2022/12/19 10:50:33;;;;;;;25.73;17.23;;;;;;;;;;5023266;28;20221;-87
2022/12/19 10:53:06;;;;;;;21.90;16.63;;;;;;;;;;5006558;28;20208;-87
2022/12/19 10:55:44;;;;;;;21.87;16.70;;;;;;;;;;5022966;28;20299;-88
2022/12/19 10:58:29;;;;;;;24.17;16.23;;;;;;;;;;5022851;28;20213;-87
2022/12/19 11:00:59;;;;;;;21.83;16.27;;;;;;;;;;5039935;28;20220;-87
2022/12/19 11:03:25;;;;;;;21.00;15.63;;;;;;;;;;5002837;28;20225;-82
2022/12/19 11:05:57;;;;;;;21.73;15.47;;;;;;;;;;4986523;28;20193;-81
2022/12/19 11:08:25;;;;;;;20.60;15.07;;;;;;;;;;5002829;28;20181;-81
2022/12/19 11:10:53;;;;;;;19.53;15.07;;;;;;;;;;5019977;28;20177;-81
2022/12/19 11:13:27;;;;;;;20.23;14.90;;;;;;;;;;5006723;28;20185;-81
2022/12/19 11:15:54;;;;;;;19.20;14.73;;;;;;;;;;5002616;28;20308;-81
2022/12/19 11:18:21;;;;;;;23.57;15.43;;;;;;;;;;5020178;28;20173;-88
2022/12/19 11:21:13;;;;;;;21.60;14.90;;;;;;;;;;5019009;28;20185;-87
2022/12/19 11:24:02;;;;;;;18.87;13.63;;;;;;;;;;5011272;28;20212;-88
2022/12/19 11:26:42;;;;;;;21.37;14.07;;;;;;;;;;5014925;28;20193;-88
2022/12/19 11:29:23;;;;;;;19.03;13.47;;;;;;;;;;5015982;28;20189;-87
2022/12/19 11:31:53;;;;;;;18.50;13.27;;;;;;;;;;5009891;28;20180;-87
2022/12/19 11:34:22;;;;;;;15.20;12.47;;;;;;;;;;5021656;28;20176;-87
2022/12/19 11:37:07;;;;;;;16.20;12.83;;;;;;;;;;5015911;28;20228;-87
2022/12/19 11:39:41;;;;;;;18.87;13.37;;;;;;;;;;5009109;28;20228;-86
2022/12/19 11:42:12;;;;;;;19.07;13.90;;;;;;;;;;5024997;28;20189;-87
2022/12/19 11:44:41;;;;;;;19.63;12.93;;;;;;;;;;5018097;28;20183;-87
2022/12/19 11:47:25;;;;;;;17.13;12.23;;;;;;;;;;5036592;28;20177;-87
2022/12/19 11:49:54;;;;;;;16.70;12.80;;;;;;;;;;5018417;28;20230;-88
2022/12/19 11:52:28;;;;;;;19.17;12.97;;;;;;;;;;5017647;28;20184;-79
2022/12/19 11:55:14;;;;;;;16.27;11.73;;;;;;;;;;5018617;28;20181;-80
2022/12/19 11:57:41;;;;;;;14.43;11.50;;;;;;;;;;5008339;28;20200;-80
2022/12/19 12:00:15;;;;;;;14.00;11.63;;;;;;;;;;5002131;28;20200;-82
2022/12/19 12:03:00;;;;;;;16.07;11.40;;;;;;;;;;5013823;28;20205;-79
2022/12/19 12:05:29;;;;;;;14.90;11.07;;;;;;;;;;5016692;28;20181;-79
2022/12/19 12:08:18;;;;;;;12.93;10.83;;;;;;;;;;5006363;28;20185;-79
2022/12/19 12:10:55;;;;;;;14.07;10.53;;;;;;;;;;5028539;28;20267;-81
2022/12/19 12:13:33;;;;;;;15.17;10.80;;;;;;;;;;5015566;28;20299;-81
2022/12/19 12:16:10;;;;;;;13.03;10.50;;;;;;;;;;5034643;28;20304;-82
2022/12/19 12:18:52;;;;;;;13.17;9.97;;;;;;;;;;5018369;28;20176;-82
2022/12/19 12:21:25;;;;;;;12.07;9.80;;;;;;;;;;5017890;28;20230;-82
2022/12/19 12:23:57;;;;;;;10.97;8.73;;;;;;;;;;4982522;28;20182;-80
2022/12/19 12:26:28;;;;;;;11.10;9.13;;;;;;;;;;5017796;28;20193;-81
2022/12/19 12:28:55;;;;;;;10.50;8.67;;;;;;;;;;5025960;28;20181;-82
2022/12/19 12:31:29;;;;;;;12.17;8.93;;;;;;;;;;5008793;28;20189;-82
2022/12/19 12:34:24;;;;;;;12.87;7.60;;;;;;;;;;5041737;28;20239;-82
2022/12/19 12:37:02;;;;;;;12.30;8.60;;;;;;;;;;5004736;28;20222;-82
2022/12/19 12:39:34;;;;;;;9.03;7.83;;;;;;;;;;5017647;28;20231;-82
2022/12/19 12:42:03;;;;;;;8.77;7.53;;;;;;;;;;5008325;28;20185;-87
2022/12/19 12:44:39;;;;;;;11.20;7.47;;;;;;;;;;5034806;28;20219;-88
2022/12/19 12:47:25;;;;;;;8.10;7.30;;;;;;;;;;5017581;28;20187;-88
2022/12/19 12:49:56;;;;;;;11.23;7.37;;;;;;;;;;5014987;28;20197;-88
2022/12/19 12:52:33;;;;;;;9.30;7.63;;;;;;;;;;5031993;28;20191;-87
2022/12/19 12:54:59;;;;;;;9.60;6.63;;;;;;;;;;5016296;28;20197;-88
2022/12/19 12:57:28;;;;;;;10.60;6.60;;;;;;;;;;5024098;28;20205;-88
2022/12/19 13:00:13;;;;;;;8.13;6.50;;;;;;;;;;5021192;28;20184;-88
2022/12/19 13:02:39;;;;;;;7.00;6.13;;;;;;;;;;5011506;28;20199;-88
2022/12/19 13:05:22;;;;;;;7.00;5.53;;;;;;;;;;4995569;28;20188;-88
2022/12/19 13:07:53;;;;;;;6.73;5.80;;;;;;;;;;5034132;28;20230;-88
2022/12/19 13:10:19;;;;;;;7.50;5.97;;;;;;;;;;5014046;28;20181;-88
2022/12/19 13:12:58;;;;;;;8.80;6.40;;;;;;;;;;5010007;28;20235;-88
2022/12/19 13:15:27;;;;;;;6.80;5.93;;;;;;;;;;5017037;28;20181;-80
2022/12/19 13:17:53;;;;;;;7.17;5.80;;;;;;;;;;5012432;28;20191;-80
2022/12/19 13:20:28;;;;;;;7.80;6.10;;;;;;;;;;5013069;28;20285;-80
2022/12/19 13:22:57;;;;;;;9.13;6.07;;;;;;;;;;5011926;28;20208;-80
2022/12/19 13:25:26;;;;;;;9.13;6.20;;;;;;;;;;5014977;28;20188;-81
2022/12/19 13:28:13;;;;;;;9.83;6.20;;;;;;;;;;5017145;28;20267;-80
2022/12/19 13:30:59;;;;;;;8.63;6.03;;;;;;;;;;5010204;28;20200;-79
2022/12/19 13:33:43;;;;;;;7.20;5.70;;;;;;;;;;5016952;28;20177;-85
2022/12/19 13:36:29;;;;;;;7.97;6.13;;;;;;;;;;5031673;28;20212;-87
2022/12/19 13:38:59;;;;;;;7.17;5.30;;;;;;;;;;5033829;28;20191;-86
2022/12/19 13:44:11;;;;;;;8.00;6.00;;;;;;;;;;5033754;28;20242;-87
2022/12/19 13:46:41;;;;;;;11.37;6.07;;;;;;;;;;5018947;28;20400;-87
2022/12/19 13:49:13;;;;;;;9.97;6.47;;;;;;;;;;5026827;28;20188;-83
2022/12/19 13:51:47;;;;;;;8.60;6.20;;;;;;;;;;5015910;28;20188;-83
2022/12/19 13:54:21;;;;;;;8.87;6.40;;;;;;;;;;5034145;28;20176;-83
2022/12/19 13:56:47;;;;;;;9.60;6.50;;;;;;;;;;5018133;28;20211;-83
2022/12/19 13:59:13;;;;;;;8.20;6.67;;;;;;;;;;5012677;28;20178;-83
2022/12/19 14:01:40;;;;;;;8.73;6.57;;;;;;;;;;5010108;28;20227;-83
2022/12/19 14:04:10;;;;;;;7.27;6.17;;;;;;;;;;5016754;28;20180;-83
2022/12/19 14:06:43;;;;;;;7.13;6.40;;;;;;;;;;5008464;28;20189;-79
2022/12/19 14:09:20;;;;;;;9.60;6.23;;;;;;;;;;5014402;28;20180;-79
2022/12/19 14:11:46;;;;;;;7.80;6.60;;;;;;;;;;5016018;28;20214;-80
2022/12/19 14:17:27;;;;;;;7.87;6.40;;;;;;;;;;5032291;28;20250;-79
2022/12/19 14:19:53;;;;;;;9.23;6.33;;;;;;;;;;4993785;28;20186;-82
2022/12/19 14:22:19;;;;;;;7.87;6.70;;;;;;;;;;5010777;28;20181;-81
2022/12/19 14:24:58;;;;;;;8.63;7.30;;;;;;;;;;5014243;28;20201;-81
2022/12/19 14:27:44;;;;;;;7.73;6.67;;;;;;;;;;5015578;28;20184;-81
2022/12/19 14:30:18;;;;;;;7.47;6.73;;;;;;;;;;5016480;28;20185;-81
2022/12/19 14:32:45;;;;;;;9.07;6.43;;;;;;;;;;5033735;28;20244;-79
2022/12/19 14:35:14;;;;;;;7.77;6.37;;;;;;;;;;5022866;28;20177;-79
2022/12/19 14:37:43;;;;;;;9.47;6.47;;;;;;;;;;5033784;28;20196;-80
2022/12/19 14:40:26;;;;;;;9.27;7.30;;;;;;;;;;5016219;28;20230;-80
2022/12/19 14:45:44;;;;;;;10.40;7.17;;;;;;;;;;5034225;28;20192;-79
2022/12/19 14:48:28;;;;;;;7.87;6.83;;;;;;;;;;5016581;28;20176;-79